sensor_id;sensor_type;location;lat;lon;timestamp;temperature;humidity
74792;SHT30;63319;46.046;17.802;2023-05-20T00:02:02;20.36;60.47
74792;SHT30;63319;46.046;17.802;2023-05-20T00:05:06;20.33;60.43
74792;SHT30;63319;46.046;17.802;2023-05-20T00:08:09;20.36;60.47
74792;SHT30;63319;46.046;17.802;2023-05-20T00:11:12;20.36;60.40
74792;SHT30;63319;46.046;17.802;2023-05-20T00:14:15;20.33;60.45
74792;SHT30;63319;46.046;17.802;2023-05-20T00:17:18;20.36;60.52
74792;SHT30;63319;46.046;17.802;2023-05-20T00:20:23;20.34;60.45
74792;SHT30;63319;46.046;17.802;2023-05-20T00:23:26;20.33;60.45
74792;SHT30;63319;46.046;17.802;2023-05-20T00:26:29;20.34;60.49
74792;SHT30;63319;46.046;17.802;2023-05-20T00:29:33;20.34;60.54
74792;SHT30;63319;46.046;17.802;2023-05-20T00:32:36;20.33;60.40
74792;SHT30;63319;46.046;17.802;2023-05-20T00:35:39;20.33;60.50
74792;SHT30;63319;46.046;17.802;2023-05-20T00:38:41;20.29;60.40
74792;SHT30;63319;46.046;17.802;2023-05-20T00:41:44;20.29;60.47
74792;SHT30;63319;46.046;17.802;2023-05-20T00:44:47;20.30;60.46
74792;SHT30;63319;46.046;17.802;2023-05-20T00:47:50;20.29;60.48
74792;SHT30;63319;46.046;17.802;2023-05-20T00:50:53;20.30;60.51
74792;SHT30;63319;46.046;17.802;2023-05-20T00:53:56;20.27;60.43
74792;SHT30;63319;46.046;17.802;2023-05-20T00:56:59;20.29;60.47
74792;SHT30;63319;46.046;17.802;2023-05-20T01:00:06;20.27;60.47
74792;SHT30;63319;46.046;17.802;2023-05-20T01:03:09;20.26;60.49
74792;SHT30;63319;46.046;17.802;2023-05-20T01:06:13;20.30;60.52
74792;SHT30;63319;46.046;17.802;2023-05-20T01:09:19;20.27;60.42
74792;SHT30;63319;46.046;17.802;2023-05-20T01:12:25;20.26;60.42
74792;SHT30;63319;46.046;17.802;2023-05-20T01:15:32;20.26;60.38
74792;SHT30;63319;46.046;17.802;2023-05-20T01:18:38;20.27;60.45
74792;SHT30;63319;46.046;17.802;2023-05-20T01:21:42;20.24;60.44
74792;SHT30;63319;46.046;17.802;2023-05-20T01:24:47;20.24;60.47
74792;SHT30;63319;46.046;17.802;2023-05-20T01:27:50;20.24;60.51
74792;SHT30;63319;46.046;17.802;2023-05-20T01:30:55;20.24;60.50
74792;SHT30;63319;46.046;17.802;2023-05-20T01:34:01;20.23;60.48
74792;SHT30;63319;46.046;17.802;2023-05-20T01:37:05;20.21;60.55
74792;SHT30;63319;46.046;17.802;2023-05-20T01:40:11;20.23;60.56
74792;SHT30;63319;46.046;17.802;2023-05-20T01:43:16;20.19;60.51
74792;SHT30;63319;46.046;17.802;2023-05-20T01:46:19;20.20;60.51
74792;SHT30;63319;46.046;17.802;2023-05-20T01:49:23;20.23;60.51
74792;SHT30;63319;46.046;17.802;2023-05-20T01:52:25;20.20;60.57
74792;SHT30;63319;46.046;17.802;2023-05-20T01:55:28;20.21;60.47
74792;SHT30;63319;46.046;17.802;2023-05-20T01:58:31;20.20;60.47
74792;SHT30;63319;46.046;17.802;2023-05-20T02:01:34;20.20;60.47
74792;SHT30;63319;46.046;17.802;2023-05-20T02:04:37;20.20;60.55
74792;SHT30;63319;46.046;17.802;2023-05-20T02:07:40;20.17;60.51
74792;SHT30;63319;46.046;17.802;2023-05-20T02:10:43;20.19;60.52
74792;SHT30;63319;46.046;17.802;2023-05-20T02:13:50;20.17;60.58
74792;SHT30;63319;46.046;17.802;2023-05-20T02:16:52;20.17;60.53
74792;SHT30;63319;46.046;17.802;2023-05-20T02:19:55;20.17;60.50
74792;SHT30;63319;46.046;17.802;2023-05-20T02:22:58;20.17;60.52
74792;SHT30;63319;46.046;17.802;2023-05-20T02:26:01;20.16;60.47
74792;SHT30;63319;46.046;17.802;2023-05-20T02:29:04;20.16;60.53
74792;SHT30;63319;46.046;17.802;2023-05-20T02:32:07;20.16;60.50
74792;SHT30;63319;46.046;17.802;2023-05-20T02:35:10;20.14;60.54
74792;SHT30;63319;46.046;17.802;2023-05-20T02:38:13;20.14;60.53
74792;SHT30;63319;46.046;17.802;2023-05-20T02:41:16;20.14;60.48
74792;SHT30;63319;46.046;17.802;2023-05-20T02:44:21;20.13;60.48
74792;SHT30;63319;46.046;17.802;2023-05-20T02:47:24;20.13;60.52
74792;SHT30;63319;46.046;17.802;2023-05-20T02:50:30;20.10;60.58
74792;SHT30;63319;46.046;17.802;2023-05-20T02:53:33;20.13;60.56
74792;SHT30;63319;46.046;17.802;2023-05-20T02:56:36;20.12;60.61
74792;SHT30;63319;46.046;17.802;2023-05-20T02:59:38;20.13;60.56
74792;SHT30;63319;46.046;17.802;2023-05-20T03:02:50;20.13;60.57
74792;SHT30;63319;46.046;17.802;2023-05-20T03:05:53;20.12;60.59
74792;SHT30;63319;46.046;17.802;2023-05-20T03:08:59;20.10;60.60
74792;SHT30;63319;46.046;17.802;2023-05-20T03:12:02;20.10;60.60
74792;SHT30;63319;46.046;17.802;2023-05-20T03:15:05;20.10;60.59
74792;SHT30;63319;46.046;17.802;2023-05-20T03:18:10;20.12;60.59
74792;SHT30;63319;46.046;17.802;2023-05-20T03:21:14;20.10;60.65
74792;SHT30;63319;46.046;17.802;2023-05-20T03:24:17;20.10;60.58
74792;SHT30;63319;46.046;17.802;2023-05-20T03:27:31;20.10;60.57
74792;SHT30;63319;46.046;17.802;2023-05-20T03:30:34;20.10;60.54
74792;SHT30;63319;46.046;17.802;2023-05-20T03:33:37;20.12;60.49
74792;SHT30;63319;46.046;17.802;2023-05-20T03:36:40;20.10;60.49
74792;SHT30;63319;46.046;17.802;2023-05-20T03:39:43;20.12;60.45
74792;SHT30;63319;46.046;17.802;2023-05-20T03:42:46;20.12;60.48
74792;SHT30;63319;46.046;17.802;2023-05-20T03:45:49;20.13;60.49
74792;SHT30;63319;46.046;17.802;2023-05-20T03:48:52;20.12;60.38
74792;SHT30;63319;46.046;17.802;2023-05-20T03:51:55;20.16;60.43
74792;SHT30;63319;46.046;17.802;2023-05-20T03:54:58;20.13;60.40
74792;SHT30;63319;46.046;17.802;2023-05-20T03:58:01;20.12;60.31
74792;SHT30;63319;46.046;17.802;2023-05-20T04:01:05;20.14;60.27
74792;SHT30;63319;46.046;17.802;2023-05-20T04:04:10;20.16;60.28
74792;SHT30;63319;46.046;17.802;2023-05-20T04:07:13;20.17;60.25
74792;SHT30;63319;46.046;17.802;2023-05-20T04:10:18;20.16;60.21
74792;SHT30;63319;46.046;17.802;2023-05-20T04:13:21;20.17;60.17
74792;SHT30;63319;46.046;17.802;2023-05-20T04:16:26;20.19;60.18
74792;SHT30;63319;46.046;17.802;2023-05-20T04:19:31;20.19;60.10
74792;SHT30;63319;46.046;17.802;2023-05-20T04:22:34;20.20;60.06
74792;SHT30;63319;46.046;17.802;2023-05-20T04:25:36;20.23;60.12
74792;SHT30;63319;46.046;17.802;2023-05-20T04:28:41;20.21;60.01
74792;SHT30;63319;46.046;17.802;2023-05-20T04:31:45;20.23;59.87
74792;SHT30;63319;46.046;17.802;2023-05-20T04:34:48;20.24;59.93
74792;SHT30;63319;46.046;17.802;2023-05-20T04:37:52;20.26;59.76
74792;SHT30;63319;46.046;17.802;2023-05-20T04:41:00;20.26;59.76
74792;SHT30;63319;46.046;17.802;2023-05-20T04:44:03;20.29;59.83
74792;SHT30;63319;46.046;17.802;2023-05-20T04:47:13;20.29;59.79
74792;SHT30;63319;46.046;17.802;2023-05-20T04:50:16;20.29;59.73
74792;SHT30;63319;46.046;17.802;2023-05-20T04:53:20;20.31;59.65
74792;SHT30;63319;46.046;17.802;2023-05-20T04:56:29;20.30;59.58
74792;SHT30;63319;46.046;17.802;2023-05-20T04:59:32;20.34;59.62
74792;SHT30;63319;46.046;17.802;2023-05-20T05:02:35;20.34;59.57
74792;SHT30;63319;46.046;17.802;2023-05-20T05:05:38;20.40;59.54
74792;SHT30;63319;46.046;17.802;2023-05-20T05:08:42;20.40;59.41
74792;SHT30;63319;46.046;17.802;2023-05-20T05:11:44;20.43;59.26
74792;SHT30;63319;46.046;17.802;2023-05-20T05:14:47;20.47;59.30
74792;SHT30;63319;46.046;17.802;2023-05-20T05:17:50;20.48;59.03
74792;SHT30;63319;46.046;17.802;2023-05-20T05:21:03;20.50;59.03
74792;SHT30;63319;46.046;17.802;2023-05-20T05:24:08;20.51;58.98
74792;SHT30;63319;46.046;17.802;2023-05-20T05:27:11;20.54;58.82
74792;SHT30;63319;46.046;17.802;2023-05-20T05:30:15;20.55;58.77
74792;SHT30;63319;46.046;17.802;2023-05-20T05:33:22;20.58;58.80
74792;SHT30;63319;46.046;17.802;2023-05-20T05:36:25;20.58;58.77
74792;SHT30;63319;46.046;17.802;2023-05-20T05:39:28;20.64;58.77
74792;SHT30;63319;46.046;17.802;2023-05-20T05:42:31;20.64;58.67
74792;SHT30;63319;46.046;17.802;2023-05-20T05:45:33;20.69;58.64
74792;SHT30;63319;46.046;17.802;2023-05-20T05:48:36;20.71;58.60
74792;SHT30;63319;46.046;17.802;2023-05-20T05:51:39;20.72;58.48
74792;SHT30;63319;46.046;17.802;2023-05-20T05:54:42;20.77;58.45
74792;SHT30;63319;46.046;17.802;2023-05-20T05:57:46;20.77;58.33
74792;SHT30;63319;46.046;17.802;2023-05-20T06:00:51;20.79;58.25
74792;SHT30;63319;46.046;17.802;2023-05-20T06:03:54;20.87;58.23
74792;SHT30;63319;46.046;17.802;2023-05-20T06:06:57;20.91;58.06
74792;SHT30;63319;46.046;17.802;2023-05-20T06:10:00;20.92;57.99
74792;SHT30;63319;46.046;17.802;2023-05-20T06:13:03;20.96;57.91
74792;SHT30;63319;46.046;17.802;2023-05-20T06:16:07;20.99;57.74
74792;SHT30;63319;46.046;17.802;2023-05-20T06:19:10;21.02;57.67
74792;SHT30;63319;46.046;17.802;2023-05-20T06:22:13;21.06;57.38
74792;SHT30;63319;46.046;17.802;2023-05-20T06:25:16;21.10;57.40
74792;SHT30;63319;46.046;17.802;2023-05-20T06:28:20;21.16;57.32
74792;SHT30;63319;46.046;17.802;2023-05-20T06:31:23;21.20;57.15
74792;SHT30;63319;46.046;17.802;2023-05-20T06:34:29;21.22;57.05
74792;SHT30;63319;46.046;17.802;2023-05-20T06:37:32;21.26;57.04
74792;SHT30;63319;46.046;17.802;2023-05-20T06:40:35;21.27;56.85
74792;SHT30;63319;46.046;17.802;2023-05-20T06:43:38;21.30;56.88
74792;SHT30;63319;46.046;17.802;2023-05-20T06:47:08;21.36;56.78
74792;SHT30;63319;46.046;17.802;2023-05-20T06:50:11;21.35;56.71
74792;SHT30;63319;46.046;17.802;2023-05-20T06:53:14;21.39;56.62
74792;SHT30;63319;46.046;17.802;2023-05-20T06:56:17;21.40;56.60
74792;SHT30;63319;46.046;17.802;2023-05-20T06:59:20;21.43;56.50
74792;SHT30;63319;46.046;17.802;2023-05-20T07:02:24;21.49;56.38
74792;SHT30;63319;46.046;17.802;2023-05-20T07:05:30;21.56;56.26
74792;SHT30;63319;46.046;17.802;2023-05-20T07:08:34;21.60;56.14
74792;SHT30;63319;46.046;17.802;2023-05-20T07:11:37;21.67;56.05
74792;SHT30;63319;46.046;17.802;2023-05-20T07:14:45;21.68;55.87
74792;SHT30;63319;46.046;17.802;2023-05-20T07:17:47;21.73;55.82
74792;SHT30;63319;46.046;17.802;2023-05-20T07:20:51;21.77;55.71
74792;SHT30;63319;46.046;17.802;2023-05-20T07:24:06;21.84;55.53
74792;SHT30;63319;46.046;17.802;2023-05-20T07:27:09;21.85;55.47
74792;SHT30;63319;46.046;17.802;2023-05-20T07:30:12;21.91;55.44
74792;SHT30;63319;46.046;17.802;2023-05-20T07:33:18;21.97;55.25
74792;SHT30;63319;46.046;17.802;2023-05-20T07:36:22;22.01;55.16
74792;SHT30;63319;46.046;17.802;2023-05-20T07:39:28;22.05;55.03
74792;SHT30;63319;46.046;17.802;2023-05-20T07:42:31;22.08;54.95
74792;SHT30;63319;46.046;17.802;2023-05-20T07:45:35;22.16;54.74
74792;SHT30;63319;46.046;17.802;2023-05-20T07:48:40;22.18;54.71
74792;SHT30;63319;46.046;17.802;2023-05-20T07:51:43;22.23;54.62
74792;SHT30;63319;46.046;17.802;2023-05-20T07:54:49;22.26;54.49
74792;SHT30;63319;46.046;17.802;2023-05-20T07:57:52;22.33;54.34
74792;SHT30;63319;46.046;17.802;2023-05-20T08:01:07;22.41;54.19
74792;SHT30;63319;46.046;17.802;2023-05-20T08:04:10;22.48;53.95
74792;SHT30;63319;46.046;17.802;2023-05-20T08:07:13;22.55;53.87
74792;SHT30;63319;46.046;17.802;2023-05-20T08:10:25;22.62;53.70
74792;SHT30;63319;46.046;17.802;2023-05-20T08:13:29;22.71;53.41
74792;SHT30;63319;46.046;17.802;2023-05-20T08:16:33;22.77;53.23
74792;SHT30;63319;46.046;17.802;2023-05-20T08:19:36;22.89;53.02
74792;SHT30;63319;46.046;17.802;2023-05-20T08:22:39;22.97;52.80
74792;SHT30;63319;46.046;17.802;2023-05-20T08:25:42;23.07;52.58
74792;SHT30;63319;46.046;17.802;2023-05-20T08:28:48;23.19;52.29
74792;SHT30;63319;46.046;17.802;2023-05-20T08:31:52;23.32;52.02
74792;SHT30;63319;46.046;17.802;2023-05-20T08:34:56;23.42;51.77
74792;SHT30;63319;46.046;17.802;2023-05-20T08:37:58;23.62;51.27
74792;SHT30;63319;46.046;17.802;2023-05-20T08:41:03;23.80;50.75
74792;SHT30;63319;46.046;17.802;2023-05-20T08:44:08;24.04;50.25
74792;SHT30;63319;46.046;17.802;2023-05-20T08:47:13;24.23;49.75
74792;SHT30;63319;46.046;17.802;2023-05-20T08:50:18;24.44;49.27
74792;SHT30;63319;46.046;17.802;2023-05-20T08:53:21;24.57;48.99
74792;SHT30;63319;46.046;17.802;2023-05-20T08:56:25;24.72;48.67
74792;SHT30;63319;46.046;17.802;2023-05-20T08:59:32;24.85;48.23
74792;SHT30;63319;46.046;17.802;2023-05-20T09:02:38;24.98;47.93
74792;SHT30;63319;46.046;17.802;2023-05-20T09:05:41;25.12;47.76
74792;SHT30;63319;46.046;17.802;2023-05-20T09:08:45;25.15;47.66
74792;SHT30;63319;46.046;17.802;2023-05-20T09:11:48;25.16;47.59
74792;SHT30;63319;46.046;17.802;2023-05-20T09:14:51;25.31;47.32
74792;SHT30;63319;46.046;17.802;2023-05-20T09:17:53;25.23;47.28
74792;SHT30;63319;46.046;17.802;2023-05-20T09:20:56;25.26;47.47
74792;SHT30;63319;46.046;17.802;2023-05-20T09:24:01;25.33;47.41
74792;SHT30;63319;46.046;17.802;2023-05-20T09:27:03;25.48;47.05
74792;SHT30;63319;46.046;17.802;2023-05-20T09:30:10;25.37;47.24
74792;SHT30;63319;46.046;17.802;2023-05-20T09:33:14;25.54;47.00
74792;SHT30;63319;46.046;17.802;2023-05-20T09:36:18;25.64;46.63
74792;SHT30;63319;46.046;17.802;2023-05-20T09:39:24;25.81;46.46
74792;SHT30;63319;46.046;17.802;2023-05-20T09:43:12;26.01;46.02
74792;SHT30;63319;46.046;17.802;2023-05-20T09:45:55;26.06;45.89
74792;SHT30;63319;46.046;17.802;2023-05-20T09:49:01;26.21;45.71
74792;SHT30;63319;46.046;17.802;2023-05-20T09:52:04;26.22;45.68
74792;SHT30;63319;46.046;17.802;2023-05-20T09:55:08;26.22;45.66
74792;SHT30;63319;46.046;17.802;2023-05-20T09:58:12;26.15;45.85
74792;SHT30;63319;46.046;17.802;2023-05-20T10:01:17;26.21;45.79
74792;SHT30;63319;46.046;17.802;2023-05-20T10:04:25;26.21;45.76
74792;SHT30;63319;46.046;17.802;2023-05-20T10:07:56;26.15;45.89
74792;SHT30;63319;46.046;17.802;2023-05-20T10:11:21;25.78;46.47
74792;SHT30;63319;46.046;17.802;2023-05-20T10:21:21;25.64;46.89
74792;SHT30;63319;46.046;17.802;2023-05-20T10:24:34;25.60;47.12
74792;SHT30;63319;46.046;17.802;2023-05-20T10:27:45;25.57;47.48
74792;SHT30;63319;46.046;17.802;2023-05-20T10:30:50;25.63;47.13
74792;SHT30;63319;46.046;17.802;2023-05-20T10:33:53;25.66;47.23
74792;SHT30;63319;46.046;17.802;2023-05-20T10:36:57;25.68;47.21
74792;SHT30;63319;46.046;17.802;2023-05-20T10:40:07;25.64;47.30
74792;SHT30;63319;46.046;17.802;2023-05-20T10:43:14;25.58;47.38
74792;SHT30;63319;46.046;17.802;2023-05-20T10:46:18;25.57;47.56
74792;SHT30;63319;46.046;17.802;2023-05-20T10:49:43;25.56;47.48
74792;SHT30;63319;46.046;17.802;2023-05-20T10:52:47;25.61;47.42
74792;SHT30;63319;46.046;17.802;2023-05-20T10:55:51;25.67;47.21
74792;SHT30;63319;46.046;17.802;2023-05-20T10:58:55;25.64;47.19
74792;SHT30;63319;46.046;17.802;2023-05-20T11:01:59;25.67;47.21
74792;SHT30;63319;46.046;17.802;2023-05-20T11:05:02;25.60;47.22
74792;SHT30;63319;46.046;17.802;2023-05-20T11:08:07;25.54;47.33
74792;SHT30;63319;46.046;17.802;2023-05-20T11:11:29;25.50;47.49
74792;SHT30;63319;46.046;17.802;2023-05-20T11:14:34;25.67;47.13
74792;SHT30;63319;46.046;17.802;2023-05-20T11:17:37;25.61;47.27
74792;SHT30;63319;46.046;17.802;2023-05-20T11:20:40;25.44;47.48
74792;SHT30;63319;46.046;17.802;2023-05-20T11:23:42;25.30;47.82
74792;SHT30;63319;46.046;17.802;2023-05-20T11:26:46;25.15;48.16
74792;SHT30;63319;46.046;17.802;2023-05-20T11:29:49;25.08;48.33
74792;SHT30;63319;46.046;17.802;2023-05-20T11:32:59;24.99;48.57
74792;SHT30;63319;46.046;17.802;2023-05-20T11:36:05;25.05;48.42
74792;SHT30;63319;46.046;17.802;2023-05-20T11:39:30;25.02;48.45
74792;SHT30;63319;46.046;17.802;2023-05-20T11:42:35;25.02;48.46
74792;SHT30;63319;46.046;17.802;2023-05-20T11:45:39;25.09;48.66
74792;SHT30;63319;46.046;17.802;2023-05-20T11:48:53;25.06;48.34
74792;SHT30;63319;46.046;17.802;2023-05-20T11:51:56;24.99;48.58
74792;SHT30;63319;46.046;17.802;2023-05-20T11:54:59;24.83;48.87
74792;SHT30;63319;46.046;17.802;2023-05-20T11:58:02;24.76;49.30
74792;SHT30;63319;46.046;17.802;2023-05-20T12:01:05;24.76;49.22
74792;SHT30;63319;46.046;17.802;2023-05-20T12:04:23;24.71;49.38
74792;SHT30;63319;46.046;17.802;2023-05-20T12:07:26;24.69;49.43
74792;SHT30;63319;46.046;17.802;2023-05-20T12:10:29;24.65;49.58
74792;SHT30;63319;46.046;17.802;2023-05-20T12:13:32;24.58;49.61
74792;SHT30;63319;46.046;17.802;2023-05-20T12:16:37;24.60;49.67
74792;SHT30;63319;46.046;17.802;2023-05-20T12:19:40;24.54;49.90
74792;SHT30;63319;46.046;17.802;2023-05-20T12:22:44;24.52;49.85
74792;SHT30;63319;46.046;17.802;2023-05-20T12:25:46;24.44;50.01
74792;SHT30;63319;46.046;17.802;2023-05-20T12:28:51;24.38;50.19
74792;SHT30;63319;46.046;17.802;2023-05-20T12:31:54;24.31;50.29
74792;SHT30;63319;46.046;17.802;2023-05-20T12:34:57;24.21;50.64
74792;SHT30;63319;46.046;17.802;2023-05-20T12:38:00;24.17;50.69
74792;SHT30;63319;46.046;17.802;2023-05-20T12:41:03;24.13;50.84
74792;SHT30;63319;46.046;17.802;2023-05-20T12:44:06;24.07;50.97
74792;SHT30;63319;46.046;17.802;2023-05-20T12:47:09;24.03;51.08
74792;SHT30;63319;46.046;17.802;2023-05-20T12:50:12;24.02;51.09
74792;SHT30;63319;46.046;17.802;2023-05-20T12:53:14;24.04;51.04
74792;SHT30;63319;46.046;17.802;2023-05-20T12:56:17;23.89;51.40
74792;SHT30;63319;46.046;17.802;2023-05-20T12:59:21;23.87;51.49
74792;SHT30;63319;46.046;17.802;2023-05-20T13:02:23;23.83;51.54
74792;SHT30;63319;46.046;17.802;2023-05-20T13:05:26;23.79;51.71
74792;SHT30;63319;46.046;17.802;2023-05-20T13:08:29;23.77;51.71
74792;SHT30;63319;46.046;17.802;2023-05-20T13:11:32;23.72;51.84
74792;SHT30;63319;46.046;17.802;2023-05-20T13:14:34;23.73;51.84
74792;SHT30;63319;46.046;17.802;2023-05-20T13:17:37;23.67;51.97
74792;SHT30;63319;46.046;17.802;2023-05-20T13:20:44;23.61;52.11
74792;SHT30;63319;46.046;17.802;2023-05-20T13:23:46;23.59;52.20
74792;SHT30;63319;46.046;17.802;2023-05-20T13:26:49;23.54;52.35
74792;SHT30;63319;46.046;17.802;2023-05-20T13:29:52;23.49;52.49
74792;SHT30;63319;46.046;17.802;2023-05-20T13:32:55;23.48;52.42
74792;SHT30;63319;46.046;17.802;2023-05-20T13:35:58;23.48;52.47
74792;SHT30;63319;46.046;17.802;2023-05-20T13:39:00;23.45;52.48
74792;SHT30;63319;46.046;17.802;2023-05-20T13:42:03;23.44;52.54
74792;SHT30;63319;46.046;17.802;2023-05-20T13:45:06;23.39;52.63
74792;SHT30;63319;46.046;17.802;2023-05-20T13:48:09;23.38;52.66
74792;SHT30;63319;46.046;17.802;2023-05-20T13:51:13;23.37;52.67
74792;SHT30;63319;46.046;17.802;2023-05-20T13:54:16;23.31;52.92
74792;SHT30;63319;46.046;17.802;2023-05-20T13:57:19;23.28;53.01
74792;SHT30;63319;46.046;17.802;2023-05-20T14:00:21;23.27;53.00
74792;SHT30;63319;46.046;17.802;2023-05-20T14:03:24;23.22;53.12
74792;SHT30;63319;46.046;17.802;2023-05-20T14:06:27;23.18;53.03
74792;SHT30;63319;46.046;17.802;2023-05-20T14:09:30;23.19;53.22
74792;SHT30;63319;46.046;17.802;2023-05-20T14:12:34;23.17;53.31
74792;SHT30;63319;46.046;17.802;2023-05-20T14:15:37;23.12;53.28
74792;SHT30;63319;46.046;17.802;2023-05-20T14:18:40;23.11;53.40
74792;SHT30;63319;46.046;17.802;2023-05-20T14:21:43;23.11;53.48
74792;SHT30;63319;46.046;17.802;2023-05-20T14:24:46;23.03;53.47
74792;SHT30;63319;46.046;17.802;2023-05-20T14:27:49;23.06;53.77
74792;SHT30;63319;46.046;17.802;2023-05-20T14:30:51;23.03;53.54
74792;SHT30;63319;46.046;17.802;2023-05-20T14:33:55;23.01;53.57
74792;SHT30;63319;46.046;17.802;2023-05-20T14:36:58;22.98;53.63
74792;SHT30;63319;46.046;17.802;2023-05-20T14:40:07;22.93;53.75
74792;SHT30;63319;46.046;17.802;2023-05-20T14:43:10;22.91;53.87
74792;SHT30;63319;46.046;17.802;2023-05-20T14:46:12;22.93;53.83
74792;SHT30;63319;46.046;17.802;2023-05-20T14:49:15;22.87;53.97
74792;SHT30;63319;46.046;17.802;2023-05-20T14:52:18;22.86;53.96
74792;SHT30;63319;46.046;17.802;2023-05-20T14:55:21;22.86;53.99
74792;SHT30;63319;46.046;17.802;2023-05-20T14:58:24;22.84;54.01
74792;SHT30;63319;46.046;17.802;2023-05-20T15:01:26;22.80;54.08
74792;SHT30;63319;46.046;17.802;2023-05-20T15:04:30;22.77;54.09
74792;SHT30;63319;46.046;17.802;2023-05-20T15:07:33;22.74;54.24
74792;SHT30;63319;46.046;17.802;2023-05-20T15:10:36;22.76;54.31
74792;SHT30;63319;46.046;17.802;2023-05-20T15:13:39;22.73;54.37
74792;SHT30;63319;46.046;17.802;2023-05-20T15:16:42;22.69;54.27
74792;SHT30;63319;46.046;17.802;2023-05-20T15:19:45;22.66;54.44
74792;SHT30;63319;46.046;17.802;2023-05-20T15:22:49;22.66;54.49
74792;SHT30;63319;46.046;17.802;2023-05-20T15:25:52;22.64;54.44
74792;SHT30;63319;46.046;17.802;2023-05-20T15:28:55;22.60;54.53
74792;SHT30;63319;46.046;17.802;2023-05-20T15:31:58;22.62;54.57
74792;SHT30;63319;46.046;17.802;2023-05-20T15:35:01;22.57;54.67
74792;SHT30;63319;46.046;17.802;2023-05-20T15:38:05;22.55;54.75
74792;SHT30;63319;46.046;17.802;2023-05-20T15:41:08;22.53;54.81
74792;SHT30;63319;46.046;17.802;2023-05-20T15:44:13;22.50;54.82
74792;SHT30;63319;46.046;17.802;2023-05-20T15:47:16;22.50;54.85
74792;SHT30;63319;46.046;17.802;2023-05-20T15:50:19;22.49;54.85
74792;SHT30;63319;46.046;17.802;2023-05-20T15:53:22;22.49;54.83
74792;SHT30;63319;46.046;17.802;2023-05-20T15:56:25;22.48;54.85
74792;SHT30;63319;46.046;17.802;2023-05-20T15:59:27;22.45;54.89
74792;SHT30;63319;46.046;17.802;2023-05-20T16:02:30;22.45;55.00
74792;SHT30;63319;46.046;17.802;2023-05-20T16:05:37;22.43;55.00
74792;SHT30;63319;46.046;17.802;2023-05-20T16:08:40;22.39;55.06
74792;SHT30;63319;46.046;17.802;2023-05-20T16:11:43;22.38;55.10
74792;SHT30;63319;46.046;17.802;2023-05-20T16:14:46;22.35;55.14
74792;SHT30;63319;46.046;17.802;2023-05-20T16:17:48;22.35;55.16
74792;SHT30;63319;46.046;17.802;2023-05-20T16:20:51;22.33;55.24
74792;SHT30;63319;46.046;17.802;2023-05-20T16:23:54;22.31;55.24
74792;SHT30;63319;46.046;17.802;2023-05-20T16:26:57;22.31;55.29
74792;SHT30;63319;46.046;17.802;2023-05-20T16:30:00;22.29;55.34
74792;SHT30;63319;46.046;17.802;2023-05-20T16:33:03;22.28;55.36
74792;SHT30;63319;46.046;17.802;2023-05-20T16:36:05;22.26;55.33
74792;SHT30;63319;46.046;17.802;2023-05-20T16:39:08;22.26;55.37
74792;SHT30;63319;46.046;17.802;2023-05-20T16:42:11;22.25;55.45
74792;SHT30;63319;46.046;17.802;2023-05-20T16:45:14;22.25;55.44
74792;SHT30;63319;46.046;17.802;2023-05-20T16:48:17;22.22;55.48
74792;SHT30;63319;46.046;17.802;2023-05-20T16:51:20;22.18;55.54
74792;SHT30;63319;46.046;17.802;2023-05-20T16:54:23;22.18;55.50
74792;SHT30;63319;46.046;17.802;2023-05-20T16:57:26;22.16;55.58
74792;SHT30;63319;46.046;17.802;2023-05-20T17:00:29;22.18;55.55
74792;SHT30;63319;46.046;17.802;2023-05-20T17:03:35;22.16;55.62
74792;SHT30;63319;46.046;17.802;2023-05-20T17:06:39;22.13;55.66
74792;SHT30;63319;46.046;17.802;2023-05-20T17:09:41;22.12;55.63
74792;SHT30;63319;46.046;17.802;2023-05-20T17:12:44;22.13;55.66
74792;SHT30;63319;46.046;17.802;2023-05-20T17:15:47;22.09;55.73
74792;SHT30;63319;46.046;17.802;2023-05-20T17:18:50;22.08;55.80
74792;SHT30;63319;46.046;17.802;2023-05-20T17:21:52;22.08;55.82
74792;SHT30;63319;46.046;17.802;2023-05-20T17:24:55;22.08;55.85
74792;SHT30;63319;46.046;17.802;2023-05-20T17:27:59;22.02;55.88
74792;SHT30;63319;46.046;17.802;2023-05-20T17:31:03;22.02;55.88
74792;SHT30;63319;46.046;17.802;2023-05-20T17:34:06;22.02;55.91
74792;SHT30;63319;46.046;17.802;2023-05-20T17:37:09;22.04;55.91
74792;SHT30;63319;46.046;17.802;2023-05-20T17:40:12;22.02;55.95
74792;SHT30;63319;46.046;17.802;2023-05-20T17:43:19;22.00;55.95
74792;SHT30;63319;46.046;17.802;2023-05-20T17:46:23;22.00;56.00
74792;SHT30;63319;46.046;17.802;2023-05-20T17:49:26;22.00;56.00
74792;SHT30;63319;46.046;17.802;2023-05-20T17:52:29;22.00;56.07
74792;SHT30;63319;46.046;17.802;2023-05-20T17:55:32;21.97;56.08
74792;SHT30;63319;46.046;17.802;2023-05-20T17:58:37;21.98;56.02
74792;SHT30;63319;46.046;17.802;2023-05-20T18:01:40;21.97;56.14
74792;SHT30;63319;46.046;17.802;2023-05-20T18:04:43;21.94;56.15
74792;SHT30;63319;46.046;17.802;2023-05-20T18:07:46;21.94;56.14
74792;SHT30;63319;46.046;17.802;2023-05-20T18:10:49;21.95;56.21
74792;SHT30;63319;46.046;17.802;2023-05-20T18:13:52;21.92;56.23
74792;SHT30;63319;46.046;17.802;2023-05-20T18:16:55;21.94;56.26
74792;SHT30;63319;46.046;17.802;2023-05-20T18:19:59;21.88;56.26
74792;SHT30;63319;46.046;17.802;2023-05-20T18:23:02;21.90;56.16
74792;SHT30;63319;46.046;17.802;2023-05-20T18:26:09;21.87;56.30
74792;SHT30;63319;46.046;17.802;2023-05-20T18:29:12;21.88;56.22
74792;SHT30;63319;46.046;17.802;2023-05-20T18:32:15;21.85;56.31
74792;SHT30;63319;46.046;17.802;2023-05-20T18:35:18;21.85;56.31
74792;SHT30;63319;46.046;17.802;2023-05-20T18:38:20;21.85;56.32
74792;SHT30;63319;46.046;17.802;2023-05-20T18:41:23;21.85;56.28
74792;SHT30;63319;46.046;17.802;2023-05-20T18:44:46;21.84;56.34
74792;SHT30;63319;46.046;17.802;2023-05-20T18:47:51;21.83;56.29
74792;SHT30;63319;46.046;17.802;2023-05-20T18:50:55;21.85;56.34
74792;SHT30;63319;46.046;17.802;2023-05-20T18:53:58;21.84;56.36
74792;SHT30;63319;46.046;17.802;2023-05-20T18:57:02;21.84;56.34
74792;SHT30;63319;46.046;17.802;2023-05-20T19:00:10;21.83;56.29
74792;SHT30;63319;46.046;17.802;2023-05-20T19:03:14;21.81;56.41
74792;SHT30;63319;46.046;17.802;2023-05-20T19:06:17;21.81;56.42
74792;SHT30;63319;46.046;17.802;2023-05-20T19:09:20;21.83;56.35
74792;SHT30;63319;46.046;17.802;2023-05-20T19:12:23;21.78;56.38